createdAt,value
2022-08-21T00:00:44.026Z,2.17
2022-08-21T00:06:47.811Z,2.10
2022-08-21T00:12:52.144Z,2.60
2022-08-21T00:18:57.265Z,2.00
2022-08-21T00:25:00.660Z,1.80
2022-08-21T00:31:04.892Z,2.35
2022-08-21T00:37:09.710Z,2.30
2022-08-21T00:43:14.673Z,2.47
2022-08-21T00:49:18.446Z,2.42
2022-08-21T00:55:24.595Z,2.33
2022-08-21T01:01:28.394Z,2.05
2022-08-21T01:07:32.216Z,2.00
2022-08-21T01:13:40.958Z,2.03
2022-08-21T01:19:44.866Z,2.10
2022-08-21T01:25:49.635Z,1.92
2022-08-21T01:31:53.171Z,2.22
2022-08-21T01:37:56.641Z,2.22
2022-08-21T01:44:01.559Z,2.30
2022-08-21T01:50:06.199Z,2.13
2022-08-21T01:56:12.505Z,2.10
2022-08-21T02:02:17.539Z,1.85
2022-08-21T02:08:24.271Z,2.30
2022-08-21T02:14:32.797Z,2.35
2022-08-21T02:20:38.667Z,2.08
2022-08-21T02:26:42.025Z,2.05
2022-08-21T02:32:46.159Z,2.17
2022-08-21T02:38:51.647Z,2.15
2022-08-21T02:44:55.042Z,2.13
2022-08-21T02:50:59.367Z,2.20
2022-08-21T02:57:04.154Z,2.17
2022-08-21T03:03:08.484Z,2.45
2022-08-21T03:09:11.826Z,3.28
2022-08-21T03:15:18.833Z,3.13
2022-08-21T03:21:22.204Z,2.90
2022-08-21T03:27:27.771Z,2.67
2022-08-21T03:33:34.846Z,3.42
2022-08-21T03:39:38.412Z,2.95
2022-08-21T03:45:41.922Z,3.20
2022-08-21T03:51:46.913Z,3.25
2022-08-21T03:57:50.564Z,3.28
2022-08-21T04:03:53.952Z,2.85
2022-08-21T04:09:58.616Z,3.10
2022-08-21T04:16:01.938Z,3.20
2022-08-21T04:22:06.172Z,2.83
2022-08-21T04:28:10.858Z,2.70
2022-08-21T04:34:15.665Z,2.97
2022-08-21T04:40:20.272Z,3.13
2022-08-21T04:46:25.013Z,3.60
2022-08-21T04:52:28.340Z,3.30
2022-08-21T04:58:31.906Z,2.97
2022-08-21T05:04:37.832Z,3.60
2022-08-21T05:10:41.268Z,3.25
2022-08-21T05:16:45.778Z,3.28
2022-08-21T05:22:50.599Z,3.17
2022-08-21T05:28:54.092Z,3.00
2022-08-21T05:34:57.727Z,3.67
2022-08-21T05:41:02.523Z,3.47
2022-08-21T05:47:07.265Z,3.70
2022-08-21T05:53:11.730Z,3.50
2022-08-21T05:59:17.028Z,3.72
2022-08-21T06:05:25.092Z,4.00
2022-08-21T06:11:40.494Z,4.07
2022-08-21T06:17:45.171Z,3.90
2022-08-21T06:23:48.513Z,3.70
2022-08-21T06:29:51.833Z,3.67
2022-08-21T06:35:56.662Z,3.00
2022-08-21T06:42:00.746Z,3.05
2022-08-21T06:48:04.957Z,3.08
2022-08-21T06:54:11.445Z,3.30
2022-08-21T07:00:15.072Z,2.58
2022-08-21T07:06:18.509Z,3.28
2022-08-21T07:12:23.227Z,3.20
2022-08-21T07:18:26.886Z,2.47
2022-08-21T07:24:30.559Z,2.53
2022-08-21T07:30:35.441Z,2.20
2022-08-21T07:36:38.847Z,2.45
2022-08-21T07:42:43.262Z,2.50
2022-08-21T07:48:48.186Z,2.42
2022-08-21T07:54:51.874Z,2.85
2022-08-21T08:00:57.008Z,3.20
2022-08-21T08:07:01.739Z,2.53
2022-08-21T08:13:05.093Z,1.70
2022-08-21T08:19:14.082Z,2.05
2022-08-21T08:25:19.666Z,3.55
2022-08-21T08:31:23.073Z,2.40
2022-08-21T08:37:29.002Z,1.63
2022-08-21T08:43:39.593Z,1.90
2022-08-21T08:49:52.512Z,1.77
2022-08-21T08:55:56.798Z,2.00
2022-08-21T09:02:01.580Z,2.25
2022-08-21T09:08:18.950Z,1.67
2022-08-21T09:14:28.218Z,1.35
2022-08-21T09:20:38.932Z,1.58
2022-08-21T09:26:47.465Z,1.63
2022-08-21T09:32:51.291Z,2.13
2022-08-21T09:38:57.664Z,2.55
2022-08-21T09:45:14.811Z,2.03
2022-08-21T09:51:19.377Z,1.42
2022-08-21T09:57:50.670Z,1.85
2022-08-21T10:04:05.579Z,2.00
2022-08-21T10:10:10.641Z,1.73
2022-08-21T10:16:20.940Z,2.13
2022-08-21T10:22:31.078Z,2.45
2022-08-21T10:28:37.587Z,10.15
2022-08-21T10:34:48.962Z,9.52
2022-08-21T10:40:58.292Z,15.23
2022-08-21T10:47:05.127Z,9.48
2022-08-21T10:53:18.367Z,4.18
2022-08-21T10:59:29.753Z,4.88
2022-08-21T11:05:34.563Z,9.68
2022-08-21T11:11:46.979Z,5.60
2022-08-21T11:18:02.553Z,5.38
2022-08-21T11:24:12.921Z,7.40
2022-08-21T11:30:17.949Z,4.53
2022-08-21T11:36:25.882Z,4.60
2022-08-21T11:42:33.236Z,3.95
2022-08-21T11:48:43.253Z,2.10
2022-08-21T11:54:49.303Z,1.90
2022-08-21T12:00:54.124Z,2.08
2022-08-21T12:06:59.108Z,2.22
2022-08-21T12:13:09.321Z,1.98
2022-08-21T12:19:14.132Z,1.60
2022-08-21T12:25:21.881Z,2.00
2022-08-21T12:31:27.091Z,2.20
2022-08-21T12:37:37.490Z,1.52
2022-08-21T12:43:48.422Z,1.30
2022-08-21T12:49:57.821Z,3.20
2022-08-21T12:56:04.732Z,5.40
2022-08-21T13:02:17.908Z,3.80
2022-08-21T13:08:24.337Z,3.78
2022-08-21T13:14:30.904Z,2.13
2022-08-21T13:20:38.552Z,3.03
2022-08-21T13:26:42.216Z,2.30
2022-08-21T13:32:47.459Z,2.10
2022-08-21T13:38:54.502Z,2.28
2022-08-21T13:44:58.029Z,2.10
2022-08-21T13:51:01.986Z,2.30
2022-08-21T13:57:07.379Z,1.90
2022-08-21T14:03:12.121Z,2.30
2022-08-21T14:09:16.812Z,1.70
2022-08-21T14:15:25.355Z,2.45
2022-08-21T14:21:34.313Z,2.40
2022-08-21T14:27:39.292Z,1.85
2022-08-21T14:33:44.112Z,2.28
2022-08-21T14:39:47.909Z,1.88
2022-08-21T14:45:51.689Z,1.70
2022-08-21T14:51:58.538Z,1.60
2022-08-21T14:58:03.277Z,2.25
2022-08-21T15:04:09.300Z,1.90
2022-08-21T15:10:14.812Z,1.65
2022-08-21T15:16:18.190Z,2.05
2022-08-21T15:22:27.871Z,2.45
2022-08-21T15:28:33.183Z,2.20
2022-08-21T15:34:36.639Z,2.30
2022-08-21T15:40:40.389Z,2.00
2022-08-21T15:46:56.518Z,2.80
2022-08-21T15:53:00.036Z,2.17
2022-08-21T15:59:05.382Z,2.10
2022-08-21T16:05:13.000Z,3.50
2022-08-21T16:11:17.079Z,2.70
2022-08-21T16:17:20.906Z,3.17
2022-08-21T16:23:25.668Z,3.13
2022-08-21T16:29:32.197Z,2.97
2022-08-21T16:35:35.692Z,3.42
2022-08-21T16:41:40.527Z,3.03
2022-08-21T16:47:44.677Z,3.30
2022-08-21T16:53:48.015Z,2.83
2022-08-21T16:59:52.877Z,2.78
2022-08-21T17:05:56.300Z,3.00
2022-08-21T17:11:59.715Z,3.10
2022-08-21T17:18:05.822Z,3.42
2022-08-21T17:24:09.519Z,3.38
2022-08-21T17:30:14.576Z,2.88
2022-08-21T17:36:19.882Z,2.55
2022-08-21T17:42:23.830Z,3.78
2022-08-21T17:48:27.343Z,3.03
2022-08-21T17:54:32.124Z,2.85
2022-08-21T18:00:36.092Z,2.60
2022-08-21T18:06:39.544Z,3.08
2022-08-21T18:12:45.839Z,2.95
2022-08-21T18:18:51.638Z,3.22
2022-08-21T18:24:55.113Z,3.35
2022-08-21T18:31:00.231Z,3.40
2022-08-21T18:37:03.968Z,2.70
2022-08-21T18:43:10.019Z,3.30
2022-08-21T18:49:20.730Z,3.45
2022-08-21T18:55:26.307Z,3.40
2022-08-21T19:01:30.890Z,3.85
2022-08-21T19:07:35.616Z,3.50
2022-08-21T19:13:40.132Z,3.28
2022-08-21T19:19:43.971Z,4.30
2022-08-21T19:32:14.644Z,3.60
2022-08-21T19:38:18.169Z,4.43
2022-08-21T19:44:24.844Z,3.78
2022-08-21T19:50:29.167Z,4.10
2022-08-21T19:56:34.212Z,3.72
2022-08-21T20:02:39.789Z,4.22
2022-08-21T20:08:51.976Z,4.00
2022-08-21T20:14:55.398Z,3.50
2022-08-21T20:21:00.201Z,3.95
2022-08-21T20:27:05.957Z,4.53
2022-08-21T20:33:09.761Z,5.13
2022-08-21T20:39:14.697Z,5.97
2022-08-21T20:45:20.535Z,5.53
2022-08-21T20:51:26.536Z,5.07
2022-08-21T20:57:34.234Z,5.30
2022-08-21T21:03:39.735Z,5.43
2022-08-21T21:09:47.550Z,6.25
2022-08-21T21:15:56.179Z,5.85
2022-08-21T21:22:04.325Z,6.25
2022-08-21T21:28:12.864Z,6.25
2022-08-21T21:34:19.480Z,6.53
2022-08-21T21:40:31.962Z,7.22
2022-08-21T21:46:38.231Z,6.03
2022-08-21T21:52:56.977Z,6.65
2022-08-21T21:59:12.065Z,6.85
2022-08-21T22:05:20.088Z,6.97
2022-08-21T22:11:29.754Z,6.90
2022-08-21T22:17:41.088Z,7.13
2022-08-21T22:23:47.753Z,6.63
2022-08-21T22:29:53.822Z,7.30
2022-08-21T22:35:59.523Z,7.22
2022-08-21T22:42:07.651Z,7.30
2022-08-21T22:48:22.567Z,7.65
2022-08-21T22:54:32.450Z,7.50
2022-08-21T23:00:44.298Z,7.95
2022-08-21T23:06:52.635Z,8.32
2022-08-21T23:13:00.707Z,8.32
2022-08-21T23:19:06.874Z,7.70
2022-08-21T23:25:19.675Z,7.60
2022-08-21T23:31:29.158Z,7.32
2022-08-21T23:44:25.118Z,7.35
2022-08-21T23:50:34.464Z,8.10
2022-08-21T23:56:48.019Z,7.90
